Time;durP1;ratioP1;P1;durP2;ratioP2;P2;SDS_P1;SDS_P2;PMS_P1;PMS_P2;Temp;Humidity;BMP_temperature;BMP_pressure;BME280_temperature;BME280_humidity;BME280_pressure;Samples;Min_cycle;Max_cycle;Signal;HPM_P1;HPM_P2
2023/06/28 00:01:19;;;;;;;1.48;0.35;;;17.50;69.20;;;;;;4811355;29;20103;-78
2023/06/28 00:03:47;;;;;;;1.73;0.52;;;17.50;69.10;;;;;;4807896;29;20449;-78
2023/06/28 00:06:14;;;;;;;1.35;0.25;;;17.50;69.10;;;;;;4807721;29;20066;-78
2023/06/28 00:08:41;;;;;;;1.23;0.30;;;17.60;69.00;;;;;;4807376;29;20046;-78
2023/06/28 00:11:09;;;;;;;1.58;0.30;;;17.60;69.00;;;;;;4807357;29;20195;-78
2023/06/28 00:13:36;;;;;;;0.95;0.30;;;17.60;68.80;;;;;;4807337;29;20054;-78
2023/06/28 00:16:04;;;;;;;1.42;0.30;;;17.70;68.80;;;;;;4812213;29;20063;-78
2023/06/28 00:18:33;;;;;;;1.50;0.30;;;17.70;68.80;;;;;;4822501;29;20460;-78
2023/06/28 00:21:02;;;;;;;0.70;0.30;;;17.60;68.80;;;;;;4807406;29;20054;-78
2023/06/28 00:23:32;;;;;;;0.80;0.40;;;17.60;68.90;;;;;;4806697;29;20123;-78
2023/06/28 00:26:01;;;;;;;1.58;0.50;;;17.60;68.90;;;;;;4822248;29;20050;-78
2023/06/28 00:28:28;;;;;;;2.65;0.30;;;17.50;68.90;;;;;;4807646;29;20050;-78
2023/06/28 00:30:55;;;;;;;1.23;0.20;;;17.60;68.80;;;;;;4807428;29;20145;-78
2023/06/28 00:33:24;;;;;;;1.20;0.22;;;17.60;68.80;;;;;;4807544;29;20958;-78
2023/06/28 00:35:51;;;;;;;0.70;0.20;;;17.60;68.70;;;;;;4807155;29;20046;-78
2023/06/28 00:38:18;;;;;;;0.77;0.20;;;17.60;68.60;;;;;;4807241;29;20438;-78
2023/06/28 00:40:45;;;;;;;2.35;0.35;;;17.70;68.60;;;;;;4789058;29;20126;-77
2023/06/28 00:43:12;;;;;;;0.93;0.30;;;17.70;68.60;;;;;;4798762;29;20042;-78
2023/06/28 00:45:39;;;;;;;1.15;0.22;;;17.60;68.70;;;;;;4806970;29;20064;-77
2023/06/28 00:48:09;;;;;;;0.82;0.20;;;17.60;68.70;;;;;;4806821;29;20133;-77
2023/06/28 00:50:38;;;;;;;1.92;0.28;;;17.60;68.80;;;;;;4806183;29;20522;-78
2023/06/28 00:53:07;;;;;;;1.40;0.20;;;17.60;68.80;;;;;;4807375;29;20057;-77
2023/06/28 00:55:34;;;;;;;0.45;0.20;;;17.60;68.80;;;;;;4806916;29;20503;-77
2023/06/28 00:58:01;;;;;;;1.58;0.30;;;17.60;68.70;;;;;;4807271;29;20145;-77
2023/06/28 01:00:28;;;;;;;0.95;0.30;;;17.60;68.80;;;;;;4792467;29;20478;-77
2023/06/28 01:02:57;;;;;;;2.03;0.30;;;17.60;69.10;;;;;;4807215;29;20458;-78
2023/06/28 01:05:24;;;;;;;1.60;0.43;;;17.60;68.80;;;;;;4822247;29;20073;-78
2023/06/28 01:07:54;;;;;;;0.80;0.20;;;17.60;68.80;;;;;;4819844;29;20053;-77
2023/06/28 01:10:21;;;;;;;0.60;0.20;;;17.60;68.90;;;;;;4791963;29;20077;-77
2023/06/28 01:12:49;;;;;;;0.95;0.30;;;17.60;68.80;;;;;;4807288;29;20448;-86
2023/06/28 01:15:17;;;;;;;0.75;0.25;;;17.70;68.80;;;;;;4823604;29;20133;-85
2023/06/28 01:17:44;;;;;;;1.95;0.30;;;17.70;68.80;;;;;;4804901;29;20113;-86
2023/06/28 01:20:11;;;;;;;0.25;0.10;;;17.70;68.80;;;;;;4807315;29;20050;-84
2023/06/28 01:22:40;;;;;;;1.02;0.20;;;17.70;68.80;;;;;;4806996;29;20118;-85
2023/06/28 01:25:10;;;;;;;0.93;0.20;;;17.80;68.80;;;;;;4806761;29;20098;-85
2023/06/28 01:27:42;;;;;;;0.77;0.30;;;17.80;68.70;;;;;;4816603;29;20078;-85
2023/06/28 01:30:14;;;;;;;0.55;0.20;;;17.80;68.70;;;;;;4807712;29;20053;-85
2023/06/28 01:32:43;;;;;;;0.63;0.10;;;17.80;68.70;;;;;;4817222;29;20092;-86
2023/06/28 01:35:10;;;;;;;1.45;0.40;;;17.80;68.70;;;;;;4821794;29;20461;-86
2023/06/28 01:37:39;;;;;;;1.25;0.30;;;17.80;68.80;;;;;;4807107;29;20046;-86
2023/06/28 01:40:11;;;;;;;0.80;0.20;;;17.80;68.80;;;;;;4815550;29;20069;-86
2023/06/28 01:42:39;;;;;;;2.85;0.30;;;17.80;69.00;;;;;;4821833;29;20107;-86
2023/06/28 01:45:07;;;;;;;0.77;0.30;;;17.80;69.40;;;;;;4822115;29;20051;-87
2023/06/28 01:47:34;;;;;;;0.57;0.20;;;17.70;69.60;;;;;;4806815;29;20061;-86
2023/06/28 01:50:02;;;;;;;3.10;0.30;;;17.70;69.80;;;;;;4791940;29;20070;-86
2023/06/28 01:52:29;;;;;;;1.42;0.20;;;17.70;70.00;;;;;;4806771;29;20053;-86
2023/06/28 01:54:59;;;;;;;2.05;0.20;;;17.70;70.20;;;;;;4807757;29;20125;-86
2023/06/28 01:57:26;;;;;;;1.00;0.20;;;17.60;70.30;;;;;;4821696;29;20047;-86
2023/06/28 01:59:54;;;;;;;1.40;0.30;;;17.60;70.60;;;;;;4806807;29;20403;-86
2023/06/28 02:02:22;;;;;;;0.82;0.30;;;17.50;70.80;;;;;;4809844;29;20046;-85
2023/06/28 02:04:49;;;;;;;0.65;0.20;;;17.40;71.00;;;;;;4810028;29;20046;-85
2023/06/28 02:07:16;;;;;;;0.50;0.20;;;17.40;71.30;;;;;;4824907;29;20114;-85
2023/06/28 02:09:47;;;;;;;2.15;0.30;;;17.40;71.60;;;;;;4808692;29;20053;-85
2023/06/28 02:12:14;;;;;;;0.98;0.30;;;17.40;72.50;;;;;;4810277;29;20107;-85
2023/06/28 02:14:41;;;;;;;0.75;0.22;;;17.40;72.10;;;;;;4809765;29;20072;-85
2023/06/28 02:17:14;;;;;;;0.55;0.20;;;17.40;72.40;;;;;;4800540;29;20054;-85
2023/06/28 02:19:41;;;;;;;1.23;0.30;;;17.30;72.40;;;;;;4822966;29;20074;-85
2023/06/28 02:22:09;;;;;;;1.23;0.20;;;17.30;72.50;;;;;;4824593;29;20495;-85
2023/06/28 02:24:35;;;;;;;0.68;0.15;;;17.30;72.80;;;;;;4799274;29;20118;-84
2023/06/28 02:27:03;;;;;;;2.10;0.30;;;17.20;73.00;;;;;;4809739;29;20527;-85
2023/06/28 02:29:30;;;;;;;0.77;0.22;;;17.20;73.30;;;;;;4809896;29;20152;-85
2023/06/28 02:31:57;;;;;;;0.47;0.20;;;17.20;73.50;;;;;;4808494;29;20069;-85
2023/06/28 02:34:24;;;;;;;2.72;0.30;;;17.20;73.70;;;;;;4831651;29;20492;-86
2023/06/28 02:36:53;;;;;;;2.05;0.40;;;17.10;73.80;;;;;;4809989;29;20474;-85
2023/06/28 02:39:21;;;;;;;1.45;0.20;;;17.00;74.20;;;;;;4824300;29;20066;-85
2023/06/28 02:41:48;;;;;;;0.60;0.20;;;17.00;74.60;;;;;;4824354;29;20570;-85
2023/06/28 02:44:15;;;;;;;3.08;0.30;;;16.90;74.70;;;;;;4809332;29;20051;-85
2023/06/28 02:46:45;;;;;;;0.80;0.30;;;16.90;74.80;;;;;;4824197;29;20145;-85
2023/06/28 02:49:13;;;;;;;0.93;0.30;;;16.90;74.90;;;;;;4809296;29;20120;-86
2023/06/28 02:51:40;;;;;;;1.00;0.30;;;16.80;75.20;;;;;;4809439;29;20150;-86
2023/06/28 02:54:10;;;;;;;1.67;0.30;;;16.70;75.40;;;;;;4809876;29;20137;-86
2023/06/28 02:56:38;;;;;;;1.85;0.40;;;16.60;75.60;;;;;;4809324;29;20053;-86
2023/06/28 02:59:22;;;;;;;0.68;0.28;;;16.50;75.90;;;;;;4809135;29;20376;-86
2023/06/28 03:01:53;;;;;;;0.50;0.20;;;16.40;76.10;;;;;;4808976;29;20515;-86
2023/06/28 03:04:20;;;;;;;1.42;0.30;;;16.30;76.20;;;;;;4808747;29;20042;-85
2023/06/28 03:06:49;;;;;;;1.23;0.20;;;16.20;76.50;;;;;;4808739;29;20046;-85
2023/06/28 03:09:16;;;;;;;1.48;0.25;;;16.10;76.70;;;;;;4809998;29;20195;-86
2023/06/28 03:11:44;;;;;;;1.48;0.40;;;16.10;77.00;;;;;;4823780;29;20054;-85
2023/06/28 03:14:11;;;;;;;0.95;0.20;;;16.00;77.30;;;;;;4802793;29;20050;-85
2023/06/28 03:16:39;;;;;;;0.50;0.13;;;16.00;77.50;;;;;;4824401;29;20056;-85
2023/06/28 03:19:08;;;;;;;0.52;0.30;;;16.00;77.60;;;;;;4809516;29;20046;-85
2023/06/28 03:21:35;;;;;;;0.80;0.10;;;16.00;77.70;;;;;;4824576;29;20042;-86
2023/06/28 03:24:03;;;;;;;0.80;0.30;;;16.00;77.80;;;;;;4812479;29;20103;-85
2023/06/28 03:26:30;;;;;;;1.48;0.20;;;16.00;77.80;;;;;;4811760;29;20059;-86
2023/06/28 03:28:58;;;;;;;1.55;0.20;;;16.00;77.90;;;;;;4809163;29;20058;-85
2023/06/28 03:31:27;;;;;;;0.93;0.30;;;16.10;78.00;;;;;;4808936;29;20046;-85
2023/06/28 03:33:54;;;;;;;1.30;0.32;;;16.00;78.00;;;;;;4808823;29;20058;-85
2023/06/28 03:36:23;;;;;;;1.73;0.57;;;16.10;78.20;;;;;;4808702;29;20050;-85
2023/06/28 03:38:50;;;;;;;0.68;0.28;;;16.00;78.40;;;;;;4810550;29;20410;-86
2023/06/28 03:41:17;;;;;;;1.58;0.20;;;16.00;78.40;;;;;;4823426;29;20081;-85
2023/06/28 03:43:44;;;;;;;2.58;0.40;;;16.00;78.50;;;;;;4808527;29;20050;-85
2023/06/28 03:46:12;;;;;;;1.23;0.28;;;16.00;78.50;;;;;;4808752;29;20065;-86
2023/06/28 03:48:40;;;;;;;1.13;0.32;;;16.10;78.50;;;;;;4808352;29;20050;-86
2023/06/28 03:51:07;;;;;;;1.25;0.40;;;16.10;78.50;;;;;;4808619;29;20129;-86
2023/06/28 03:53:34;;;;;;;1.52;0.30;;;16.10;78.50;;;;;;4808740;29;20054;-86
2023/06/28 03:56:03;;;;;;;0.43;0.25;;;16.20;78.60;;;;;;4808532;29;20112;-86
2023/06/28 03:58:30;;;;;;;0.73;0.30;;;16.20;78.60;;;;;;4808277;29;20089;-85
2023/06/28 04:00:58;;;;;;;1.85;0.40;;;16.30;78.70;;;;;;4808493;29;20117;-87
2023/06/28 04:03:26;;;;;;;1.92;0.40;;;16.30;78.80;;;;;;4823403;29;20460;-86
2023/06/28 04:05:53;;;;;;;0.93;0.30;;;16.30;78.80;;;;;;4808521;29;20149;-87
2023/06/28 04:08:20;;;;;;;3.75;0.43;;;16.40;79.00;;;;;;4805189;29;20042;-87
2023/06/28 04:10:47;;;;;;;1.85;0.40;;;16.40;79.00;;;;;;4817481;29;20062;-87
2023/06/28 04:13:14;;;;;;;1.42;0.40;;;16.40;79.10;;;;;;4823150;29;20054;-87
2023/06/28 04:15:41;;;;;;;1.50;0.38;;;16.40;79.10;;;;;;4808442;29;20043;-86
2023/06/28 04:18:08;;;;;;;1.67;0.40;;;16.40;79.20;;;;;;4808345;29;20129;-86
2023/06/28 04:20:35;;;;;;;1.25;0.40;;;16.40;79.30;;;;;;4808022;29;20114;-86
2023/06/28 04:23:02;;;;;;;0.85;0.38;;;16.40;79.40;;;;;;4792888;29;20052;-87
2023/06/28 04:25:29;;;;;;;3.47;0.40;;;16.30;79.60;;;;;;4807933;29;20042;-87
2023/06/28 04:27:57;;;;;;;2.00;0.45;;;16.30;79.90;;;;;;4808092;29;20043;-86
2023/06/28 04:30:24;;;;;;;1.80;0.60;;;16.20;80.00;;;;;;4807320;29;20038;-86
2023/06/28 04:32:51;;;;;;;1.10;0.38;;;16.10;80.20;;;;;;4792658;29;20054;-86
2023/06/28 04:35:21;;;;;;;2.13;0.40;;;16.10;80.30;;;;;;4807837;29;20073;-86
2023/06/28 04:37:50;;;;;;;1.10;0.50;;;16.10;80.50;;;;;;4808435;29;20060;-86
2023/06/28 04:40:17;;;;;;;2.40;0.50;;;16.10;80.40;;;;;;4817510;29;20503;-85
2023/06/28 04:42:44;;;;;;;1.48;0.40;;;16.10;80.50;;;;;;4806890;29;20497;-85
2023/06/28 04:45:11;;;;;;;1.30;0.40;;;16.10;80.60;;;;;;4807128;29;20051;-86
2023/06/28 04:47:38;;;;;;;3.28;0.50;;;16.10;80.70;;;;;;4822062;29;20058;-86
2023/06/28 04:50:06;;;;;;;2.45;0.63;;;16.10;80.70;;;;;;4822251;29;20046;-86
2023/06/28 04:52:33;;;;;;;2.85;0.80;;;16.10;80.80;;;;;;4807309;29;20058;-86
2023/06/28 04:55:00;;;;;;;1.13;0.40;;;16.10;80.90;;;;;;4801186;29;20054;-87
2023/06/28 04:57:27;;;;;;;1.10;0.40;;;16.20;81.00;;;;;;4807388;29;20062;-87
2023/06/28 04:59:55;;;;;;;2.50;0.57;;;16.20;81.00;;;;;;4807121;29;20046;-86
2023/06/28 05:02:25;;;;;;;0.88;0.40;;;16.20;81.00;;;;;;4807279;29;20229;-86
2023/06/28 05:04:53;;;;;;;1.98;0.60;;;16.30;81.00;;;;;;4804327;29;20108;-86
2023/06/28 05:07:20;;;;;;;1.90;0.50;;;16.30;81.10;;;;;;4821946;29;20073;-86
2023/06/28 05:09:48;;;;;;;2.95;0.80;;;16.30;81.10;;;;;;4806911;29;20054;-86
2023/06/28 05:12:15;;;;;;;1.17;0.45;;;16.40;81.20;;;;;;4777189;29;20055;-86
2023/06/28 05:14:42;;;;;;;1.23;0.35;;;16.40;81.10;;;;;;4807127;29;20047;-86
2023/06/28 05:17:09;;;;;;;1.50;0.50;;;16.50;81.20;;;;;;4789220;29;20551;-85
2023/06/28 05:19:36;;;;;;;1.02;0.45;;;16.50;81.20;;;;;;4821977;29;20058;-85
2023/06/28 05:22:03;;;;;;;1.73;0.70;;;16.50;81.20;;;;;;4822035;29;20492;-85
2023/06/28 05:24:30;;;;;;;1.92;0.65;;;16.60;81.30;;;;;;4806781;29;20054;-85
2023/06/28 05:26:57;;;;;;;1.92;0.50;;;16.60;81.40;;;;;;4806795;29;20050;-86
2023/06/28 05:29:25;;;;;;;1.65;0.50;;;16.60;81.40;;;;;;4806862;29;20047;-86
2023/06/28 05:31:52;;;;;;;1.33;0.45;;;16.60;81.60;;;;;;4806509;29;20141;-86
2023/06/28 05:34:19;;;;;;;2.35;0.70;;;16.60;81.70;;;;;;4806444;29;20066;-86
2023/06/28 05:36:46;;;;;;;2.20;0.70;;;16.70;81.80;;;;;;4805486;29;20500;-86
2023/06/28 05:39:13;;;;;;;2.13;0.67;;;16.70;81.80;;;;;;4784957;29;1187704;-86
2023/06/28 05:41:40;;;;;;;0.93;0.40;;;16.60;81.90;;;;;;4826977;29;20129;-86
2023/06/28 05:44:07;;;;;;;2.10;0.50;;;16.60;81.90;;;;;;4810296;29;20053;-79
2023/06/28 05:46:34;;;;;;;1.65;0.50;;;16.70;82.00;;;;;;4810645;29;20484;-79
2023/06/28 05:49:08;;;;;;;2.30;0.80;;;16.70;82.10;;;;;;4813344;29;20465;-79
2023/06/28 05:51:36;;;;;;;1.30;0.52;;;16.70;82.10;;;;;;4810125;29;20129;-78
2023/06/28 05:54:04;;;;;;;1.15;0.55;;;16.70;82.00;;;;;;4819821;29;20384;-79
2023/06/28 05:56:31;;;;;;;1.83;0.55;;;16.70;82.10;;;;;;4810355;29;20069;-79
2023/06/28 05:58:59;;;;;;;2.85;0.70;;;16.70;82.10;;;;;;4810237;29;20107;-79
2023/06/28 06:01:26;;;;;;;1.92;0.60;;;16.80;82.20;;;;;;4807969;29;20102;-79
2023/06/28 06:03:53;;;;;;;2.40;0.50;;;16.80;82.10;;;;;;4818291;29;20568;-78
2023/06/28 06:06:20;;;;;;;2.25;0.60;;;16.80;82.20;;;;;;4821915;29;20035;-79
2023/06/28 06:08:47;;;;;;;1.48;0.60;;;16.80;82.20;;;;;;4823385;29;20047;-79
2023/06/28 06:11:14;;;;;;;4.20;0.60;;;16.80;82.30;;;;;;4824573;29;20046;-79
2023/06/28 06:13:41;;;;;;;2.03;0.80;;;16.80;82.30;;;;;;4810047;29;20492;-78
2023/06/28 06:16:08;;;;;;;2.22;0.75;;;16.80;82.40;;;;;;4809752;29;20062;-78
2023/06/28 06:18:39;;;;;;;3.65;0.70;;;16.80;82.50;;;;;;4809611;29;20042;-78
2023/06/28 06:21:07;;;;;;;2.40;0.80;;;16.70;82.50;;;;;;4810306;29;20139;-78
2023/06/28 06:23:34;;;;;;;3.00;0.70;;;16.70;82.60;;;;;;4809590;29;20145;-79
2023/06/28 06:26:01;;;;;;;2.38;0.70;;;16.70;82.70;;;;;;4809621;29;20158;-78
2023/06/28 06:28:28;;;;;;;3.08;0.90;;;16.70;82.70;;;;;;4824666;29;20050;-79
2023/06/28 06:30:55;;;;;;;3.90;0.93;;;16.70;82.80;;;;;;4809776;29;20046;-78
2023/06/28 06:33:22;;;;;;;1.75;0.90;;;16.80;82.80;;;;;;4824073;29;20057;-78
2023/06/28 06:35:50;;;;;;;5.45;0.98;;;16.80;82.70;;;;;;4809622;29;20054;-78
2023/06/28 06:38:17;;;;;;;2.40;0.90;;;16.80;82.90;;;;;;4805751;29;20054;-78
2023/06/28 06:40:45;;;;;;;1.83;0.80;;;16.90;82.60;;;;;;4811262;29;20059;-79
2023/06/28 06:43:12;;;;;;;4.50;1.10;;;16.90;82.50;;;;;;4824242;29;20061;-79
2023/06/28 06:45:39;;;;;;;2.78;1.35;;;16.90;82.60;;;;;;4794608;29;20053;-78
2023/06/28 06:48:06;;;;;;;4.40;0.90;;;17.00;82.60;;;;;;4824193;29;20050;-78
2023/06/28 06:50:33;;;;;;;2.80;1.02;;;17.00;82.70;;;;;;4824229;29;20059;-78
2023/06/28 06:53:00;;;;;;;2.45;0.98;;;17.00;82.80;;;;;;4797692;29;20058;-78
2023/06/28 06:55:27;;;;;;;2.95;1.23;;;17.00;82.80;;;;;;4808999;29;20053;-78
2023/06/28 06:57:54;;;;;;;2.80;1.10;;;16.90;82.80;;;;;;4805774;29;20035;-78
2023/06/28 07:00:27;;;;;;;3.65;1.10;;;16.90;82.80;;;;;;4819919;29;20133;-78
2023/06/28 07:02:57;;;;;;;3.30;1.48;;;17.00;83.20;;;;;;4807691;29;20046;-78
2023/06/28 07:05:24;;;;;;;4.32;1.25;;;17.00;82.90;;;;;;4809109;29;20046;-78
2023/06/28 07:07:51;;;;;;;3.42;1.20;;;17.00;83.00;;;;;;4809036;29;20061;-78
2023/06/28 07:10:21;;;;;;;3.38;1.05;;;17.00;83.70;;;;;;4824648;29;20067;-78
2023/06/28 07:12:48;;;;;;;3.15;1.65;;;17.00;83.10;;;;;;4809039;29;20122;-78
2023/06/28 07:15:17;;;;;;;4.38;1.60;;;17.00;83.30;;;;;;4808741;29;20051;-78
2023/06/28 07:17:44;;;;;;;4.13;1.23;;;17.10;83.20;;;;;;4809083;29;20418;-78
2023/06/28 07:20:11;;;;;;;3.50;1.65;;;17.10;83.10;;;;;;4808546;29;20054;-78
2023/06/28 07:22:38;;;;;;;2.55;1.10;;;17.20;83.10;;;;;;4823805;29;20096;-78
2023/06/28 07:25:06;;;;;;;2.97;1.40;;;17.30;83.10;;;;;;4808963;29;20072;-78
2023/06/28 07:27:36;;;;;;;3.38;1.13;;;17.30;83.10;;;;;;4809586;29;20062;-78
2023/06/28 07:30:04;;;;;;;4.95;1.77;;;17.30;83.80;;;;;;4806514;29;20055;-78
2023/06/28 07:32:31;;;;;;;3.55;1.75;;;17.30;83.30;;;;;;4821066;29;20047;-78
2023/06/28 07:34:58;;;;;;;5.03;1.33;;;17.30;83.30;;;;;;4823620;29;20047;-78
2023/06/28 07:37:25;;;;;;;3.13;1.48;;;17.30;83.40;;;;;;4808495;29;20054;-78
2023/06/28 07:39:52;;;;;;;4.90;1.63;;;17.40;83.30;;;;;;4802069;29;20063;-78
2023/06/28 07:42:20;;;;;;;3.58;1.45;;;17.40;83.30;;;;;;4817757;29;20035;-78
2023/06/28 07:44:47;;;;;;;2.25;1.10;;;17.50;83.30;;;;;;4790284;29;20058;-78
2023/06/28 07:47:14;;;;;;;4.00;1.25;;;17.60;83.30;;;;;;4790356;29;20104;-77
2023/06/28 07:49:40;;;;;;;2.95;1.10;;;17.70;83.20;;;;;;4805219;29;20058;-77
2023/06/28 07:52:09;;;;;;;3.97;1.45;;;17.70;83.10;;;;;;4820070;29;20081;-77
2023/06/28 07:54:36;;;;;;;3.78;1.55;;;17.70;83.00;;;;;;4790383;29;20462;-77
2023/06/28 07:57:03;;;;;;;4.57;1.42;;;17.70;83.20;;;;;;4820021;29;20051;-79
2023/06/28 07:59:31;;;;;;;4.35;1.58;;;17.70;83.30;;;;;;4804399;29;20141;-77
2023/06/28 08:01:58;;;;;;;5.18;1.63;;;17.70;83.30;;;;;;4792337;29;20051;-78
2023/06/28 08:04:25;;;;;;;5.95;1.65;;;17.70;83.30;;;;;;4804928;29;20039;-78
2023/06/28 08:06:55;;;;;;;2.63;1.08;;;17.70;83.40;;;;;;4820037;29;20055;-77
2023/06/28 08:09:22;;;;;;;3.40;1.25;;;17.70;83.40;;;;;;4804861;29;20051;-77
2023/06/28 08:11:49;;;;;;;2.58;1.10;;;17.80;83.40;;;;;;4804595;29;20051;-78
2023/06/28 08:14:16;;;;;;;3.22;1.27;;;17.80;83.40;;;;;;4804551;29;20382;-77
2023/06/28 08:16:45;;;;;;;2.70;1.27;;;17.80;83.30;;;;;;4804671;29;20046;-77
2023/06/28 08:19:14;;;;;;;1.90;0.90;;;17.90;83.30;;;;;;4807398;29;20166;-77
2023/06/28 08:21:41;;;;;;;3.10;1.50;;;17.90;83.20;;;;;;4803949;29;20051;-77
2023/06/28 08:24:08;;;;;;;4.38;1.45;;;18.00;83.10;;;;;;4804451;29;20051;-77
2023/06/28 08:26:36;;;;;;;2.97;1.20;;;18.10;83.00;;;;;;4804508;29;20042;-77
2023/06/28 08:29:03;;;;;;;3.25;1.00;;;18.10;82.90;;;;;;4798784;29;20399;-78
2023/06/28 08:31:30;;;;;;;4.15;1.30;;;18.20;82.80;;;;;;4799551;29;20055;-77
2023/06/28 08:33:58;;;;;;;4.53;1.63;;;18.30;82.60;;;;;;4819409;29;20130;-77
2023/06/28 08:36:25;;;;;;;3.42;1.30;;;18.40;82.50;;;;;;4804170;29;20047;-78
2023/06/28 08:38:52;;;;;;;3.88;1.20;;;18.40;82.30;;;;;;4819280;29;20038;-79
2023/06/28 08:41:19;;;;;;;3.60;1.08;;;18.50;82.30;;;;;;4797781;29;20054;-79
2023/06/28 08:43:53;;;;;;;5.18;1.08;;;18.60;82.30;;;;;;4771484;30;20438;-76
2023/06/28 08:46:21;;;;;;;2.97;1.08;;;18.60;82.40;;;;;;4786039;30;20096;-77
2023/06/28 08:48:49;;;;;;;2.95;1.02;;;18.60;82.20;;;;;;4786324;29;20443;-87
2023/06/28 08:51:16;;;;;;;3.90;1.63;;;18.70;82.00;;;;;;4786529;30;20059;-86
2023/06/28 08:53:47;;;;;;;2.88;1.30;;;18.70;81.90;;;;;;4801186;29;20069;-87
2023/06/28 08:56:18;;;;;;;4.00;1.40;;;18.70;82.00;;;;;;4801348;29;20166;-85
2023/06/28 08:58:50;;;;;;;5.03;1.80;;;18.70;82.00;;;;;;4771873;30;20051;-83
2023/06/28 09:01:20;;;;;;;3.67;1.27;;;18.70;82.10;;;;;;4801114;29;20055;-85
2023/06/28 09:03:48;;;;;;;3.67;1.50;;;18.70;82.00;;;;;;4801273;29;20047;-85
2023/06/28 09:06:15;;;;;;;7.30;2.33;;;18.80;81.80;;;;;;4801184;29;20443;-84
2023/06/28 09:08:43;;;;;;;4.05;1.67;;;18.80;81.80;;;;;;4800959;29;20408;-83
2023/06/28 09:11:11;;;;;;;3.65;1.48;;;18.80;81.80;;;;;;4799722;29;20181;-83
2023/06/28 09:13:39;;;;;;;3.83;1.10;;;18.90;81.70;;;;;;4794881;29;20048;-83
2023/06/28 09:16:09;;;;;;;5.45;1.20;;;18.90;81.60;;;;;;4804633;29;20051;-83
2023/06/28 09:18:37;;;;;;;3.45;1.30;;;19.00;81.50;;;;;;4791100;29;20561;-83
2023/06/28 09:21:04;;;;;;;3.85;1.15;;;19.00;81.50;;;;;;4799369;29;20047;-83
2023/06/28 09:23:34;;;;;;;3.63;1.40;;;19.10;81.50;;;;;;4802061;29;20043;-83
2023/06/28 09:26:01;;;;;;;4.47;1.25;;;19.00;81.50;;;;;;4801505;29;20516;-83
2023/06/28 09:28:36;;;;;;;5.28;1.60;;;19.00;81.50;;;;;;4786335;30;20047;-84
2023/06/28 09:31:06;;;;;;;2.92;1.10;;;19.00;81.60;;;;;;4789577;29;20051;-84
2023/06/28 09:33:33;;;;;;;2.40;1.00;;;19.00;81.60;;;;;;4804145;29;20059;-84
2023/06/28 09:36:04;;;;;;;2.30;0.90;;;19.00;81.70;;;;;;4804140;29;20075;-83
2023/06/28 09:38:33;;;;;;;3.37;1.37;;;19.00;81.60;;;;;;4790531;29;20051;-84
2023/06/28 09:41:02;;;;;;;4.20;1.52;;;19.10;81.40;;;;;;4798760;29;20062;-84
2023/06/28 09:43:33;;;;;;;3.33;1.15;;;19.10;81.20;;;;;;4803942;29;20062;-86
2023/06/28 09:46:12;;;;;;;4.22;1.65;;;19.20;80.90;;;;;;4803595;29;20144;-76
2023/06/28 09:48:49;;;;;;;3.45;1.10;;;19.30;80.80;;;;;;4790360;29;20105;-77
2023/06/28 09:51:18;;;;;;;3.33;1.25;;;19.30;80.60;;;;;;4801559;29;20074;-76
2023/06/28 09:53:53;;;;;;;4.13;1.48;;;19.30;80.40;;;;;;4804141;29;20067;-77
2023/06/28 09:56:38;;;;;;;3.45;1.38;;;19.40;80.50;;;;;;4791765;29;20051;-75
2023/06/28 09:59:08;;;;;;;4.35;1.20;;;19.50;80.30;;;;;;4785992;29;20054;-76
2023/06/28 10:01:44;;;;;;;2.72;1.17;;;19.50;80.30;;;;;;4802600;29;20063;-77
2023/06/28 10:04:12;;;;;;;3.38;1.05;;;19.50;80.30;;;;;;4788846;30;20071;-77
2023/06/28 10:06:43;;;;;;;3.35;1.40;;;19.60;80.20;;;;;;4803194;29;20124;-77
2023/06/28 10:09:16;;;;;;;2.95;1.08;;;19.50;80.20;;;;;;4788790;29;20051;-84
2023/06/28 10:11:46;;;;;;;2.65;1.10;;;19.50;80.30;;;;;;4788965;30;20400;-85
2023/06/28 10:14:17;;;;;;;3.80;1.10;;;19.40;80.30;;;;;;4794289;29;20154;-84
2023/06/28 10:16:45;;;;;;;3.15;1.33;;;19.40;80.30;;;;;;4776953;29;20089;-83
2023/06/28 10:19:12;;;;;;;3.00;1.30;;;19.50;80.30;;;;;;4788799;30;20047;-84
2023/06/28 10:21:40;;;;;;;5.03;2.25;;;19.50;80.30;;;;;;4773408;30;20047;-84
2023/06/28 10:24:08;;;;;;;3.30;1.80;;;19.50;80.20;;;;;;4788887;29;20052;-85
2023/06/28 10:26:36;;;;;;;5.00;1.70;;;19.50;80.20;;;;;;4788108;30;20061;-85
2023/06/28 10:29:04;;;;;;;4.13;1.52;;;19.50;80.00;;;;;;4790124;29;20081;-83
2023/06/28 10:31:32;;;;;;;2.80;1.13;;;19.60;80.00;;;;;;4789509;30;20051;-77
2023/06/28 10:33:59;;;;;;;3.35;1.90;;;19.80;79.70;;;;;;4803253;29;20051;-77
2023/06/28 10:36:28;;;;;;;3.72;1.63;;;19.90;79.30;;;;;;4788146;29;20543;-76
2023/06/28 10:38:55;;;;;;;3.90;1.58;;;20.10;79.00;;;;;;4788475;30;20075;-75
2023/06/28 10:41:24;;;;;;;5.43;1.58;;;20.20;78.60;;;;;;4788418;29;20549;-77
2023/06/28 10:44:05;;;;;;;3.10;1.73;;;20.40;78.20;;;;;;4802950;29;20051;-86
2023/06/28 10:46:33;;;;;;;7.65;1.98;;;20.60;77.70;;;;;;4788223;30;20047;-85
2023/06/28 10:49:01;;;;;;;3.42;1.38;;;20.90;77.20;;;;;;4803018;29;20051;-83
2023/06/28 10:51:30;;;;;;;3.50;1.50;;;21.10;76.80;;;;;;4788384;29;20062;-84
2023/06/28 10:54:13;;;;;;;3.92;1.60;;;21.30;76.30;;;;;;4802979;29;20116;-86
2023/06/28 10:56:48;;;;;;;4.57;1.80;;;21.50;75.80;;;;;;4788627;29;20112;-85
2023/06/28 10:59:15;;;;;;;3.38;1.65;;;21.70;75.40;;;;;;4788466;29;20055;-84
2023/06/28 11:01:49;;;;;;;2.80;1.20;;;21.80;75.40;;;;;;4773233;30;20421;-83
2023/06/28 11:04:18;;;;;;;3.00;1.30;;;22.00;75.10;;;;;;4802966;29;20050;-83
2023/06/28 11:06:46;;;;;;;3.13;1.35;;;22.10;74.70;;;;;;4788029;29;20519;-84
2023/06/28 11:09:19;;;;;;;3.78;1.55;;;22.30;74.50;;;;;;4787944;30;20079;-85
2023/06/28 11:11:59;;;;;;;4.88;1.73;;;22.50;73.90;;;;;;4802619;29;20062;-83
2023/06/28 11:14:30;;;;;;;5.20;1.88;;;22.70;73.50;;;;;;4788228;29;20044;-80
2023/06/28 11:17:03;;;;;;;4.63;2.30;;;22.80;73.30;;;;;;4802561;29;20047;-80
2023/06/28 11:19:30;;;;;;;2.67;1.17;;;22.80;72.70;;;;;;4802694;29;20497;-79
2023/06/28 11:22:02;;;;;;;2.78;1.48;;;22.80;73.00;;;;;;4787634;29;20055;-78
2023/06/28 11:24:32;;;;;;;3.25;1.38;;;22.90;72.80;;;;;;4802416;29;20058;-79
2023/06/28 11:27:12;;;;;;;4.55;1.30;;;23.10;72.70;;;;;;4802296;29;20055;-79
2023/06/28 11:30:00;;;;;;;2.47;1.30;;;23.20;72.50;;;;;;4788450;29;20082;-79
2023/06/28 11:32:30;;;;;;;4.03;1.83;;;23.40;72.20;;;;;;4799063;29;20056;-80
2023/06/28 11:34:59;;;;;;;4.50;2.17;;;23.30;71.80;;;;;;4797901;29;20043;-78
2023/06/28 11:37:27;;;;;;;4.70;1.75;;;23.30;71.80;;;;;;4787246;30;20043;-78
2023/06/28 11:39:54;;;;;;;4.25;1.90;;;23.20;71.70;;;;;;4798779;29;20074;-78
2023/06/28 11:42:21;;;;;;;4.63;1.95;;;23.20;71.80;;;;;;4808449;29;20051;-79
2023/06/28 11:44:50;;;;;;;5.97;1.95;;;23.20;71.80;;;;;;4808393;29;20125;-78
2023/06/28 11:50:18;;;;;;;3.95;1.63;;;23.20;71.70;;;;;;5114489;23;20153;-76
2023/06/28 11:52:48;;;;;;;4.93;1.85;;;23.20;71.70;;;;;;4842580;29;20064;-77
2023/06/28 11:55:15;;;;;;;2.95;1.55;;;23.10;71.60;;;;;;4844555;29;20075;-76
2023/06/28 11:57:44;;;;;;;3.95;1.92;;;23.10;71.60;;;;;;4844799;29;20399;-77
2023/06/28 12:00:16;;;;;;;3.42;2.10;;;22.90;72.20;;;;;;4844272;29;20059;-76
2023/06/28 12:02:50;;;;;;;4.03;1.92;;;22.70;71.90;;;;;;4860967;29;20474;-77
2023/06/28 12:05:18;;;;;;;3.15;1.40;;;22.60;72.20;;;;;;4860844;29;20049;-76
2023/06/28 12:07:46;;;;;;;3.95;1.50;;;22.50;72.50;;;;;;4859567;29;20045;-76
2023/06/28 12:10:17;;;;;;;4.32;1.85;;;22.40;72.60;;;;;;4859876;29;20041;-79
2023/06/28 12:12:44;;;;;;;3.63;1.88;;;22.50;72.60;;;;;;4859741;29;20052;-78
2023/06/28 12:15:13;;;;;;;3.50;1.58;;;22.40;72.50;;;;;;4844284;29;20046;-78
2023/06/28 12:17:42;;;;;;;4.53;1.77;;;22.40;72.50;;;;;;4829425;29;20053;-78
2023/06/28 12:20:14;;;;;;;3.40;1.08;;;22.40;72.40;;;;;;4859598;29;20052;-78
2023/06/28 12:22:43;;;;;;;5.63;1.95;;;22.50;72.30;;;;;;4841749;29;20050;-78
2023/06/28 12:25:10;;;;;;;3.10;1.50;;;22.50;72.10;;;;;;4870461;29;20053;-80
2023/06/28 12:27:41;;;;;;;4.20;1.75;;;22.50;71.90;;;;;;4858084;29;20045;-82
2023/06/28 12:30:15;;;;;;;4.65;1.45;;;22.70;71.90;;;;;;4860095;29;20513;-79
2023/06/28 12:32:46;;;;;;;2.90;1.75;;;22.80;71.70;;;;;;4859230;29;20072;-78
2023/06/28 12:35:27;;;;;;;3.25;1.23;;;22.90;71.60;;;;;;4841077;29;20056;-78
2023/06/28 12:37:55;;;;;;;3.38;1.60;;;22.90;71.40;;;;;;4842250;29;20042;-78
2023/06/28 12:40:28;;;;;;;3.70;1.63;;;22.90;71.40;;;;;;4842348;29;20042;-79
2023/06/28 12:43:15;;;;;;;3.65;1.50;;;22.90;71.20;;;;;;4859003;29;20077;-79
2023/06/28 12:45:48;;;;;;;3.50;1.42;;;23.10;71.00;;;;;;4843156;29;20490;-79
2023/06/28 12:48:17;;;;;;;4.38;1.80;;;23.30;70.90;;;;;;4859040;29;20105;-78
2023/06/28 12:50:49;;;;;;;4.55;1.45;;;23.50;70.40;;;;;;4843650;29;20061;-78
2023/06/28 12:53:16;;;;;;;3.45;1.52;;;23.70;70.10;;;;;;4826195;29;20069;-79
2023/06/28 12:55:43;;;;;;;4.22;2.20;;;23.90;69.70;;;;;;4853421;29;20410;-78
2023/06/28 12:58:13;;;;;;;5.18;2.05;;;24.20;69.20;;;;;;4847591;29;20098;-79